createdAt,value
2022-08-19T00:01:32.863Z,27.21
2022-08-19T00:04:04.550Z,27.20
2022-08-19T00:06:30.930Z,27.19
2022-08-19T00:08:57.317Z,27.20
2022-08-19T00:11:26.026Z,27.20
2022-08-19T00:13:52.802Z,27.17
2022-08-19T00:16:19.185Z,27.20
2022-08-19T00:18:51.937Z,27.20
2022-08-19T00:21:18.397Z,27.21
2022-08-19T00:23:45.705Z,27.21
2022-08-19T00:26:12.021Z,27.21
2022-08-19T00:28:38.326Z,27.20
2022-08-19T00:31:04.770Z,27.35
2022-08-19T00:33:31.299Z,27.19
2022-08-19T00:35:59.573Z,27.15
2022-08-19T00:38:37.267Z,27.16
2022-08-19T00:41:03.778Z,27.15
2022-08-19T00:43:30.106Z,27.16
2022-08-19T00:45:56.584Z,27.16
2022-08-19T00:48:22.965Z,27.14
2022-08-19T00:50:52.284Z,27.16
2022-08-19T00:53:18.846Z,27.17
2022-08-19T00:55:45.301Z,27.17
2022-08-19T00:58:12.197Z,27.17
2022-08-19T01:00:38.594Z,27.19
2022-08-19T01:03:05.499Z,27.20
2022-08-19T01:05:32.275Z,27.18
2022-08-19T01:07:58.866Z,27.17
2022-08-19T01:10:25.275Z,27.17
2022-08-19T01:12:51.957Z,27.18
2022-08-19T01:15:18.497Z,27.19
2022-08-19T01:17:45.072Z,27.25
2022-08-19T01:20:11.488Z,27.23
2022-08-19T01:22:37.882Z,27.21
2022-08-19T01:25:06.222Z,27.19
2022-08-19T01:27:43.917Z,27.17
2022-08-19T01:30:10.461Z,27.17
2022-08-19T01:32:36.842Z,27.17
2022-08-19T01:35:03.253Z,27.18
2022-08-19T01:37:29.674Z,27.19
2022-08-19T01:39:56.068Z,27.16
2022-08-19T01:42:22.618Z,27.17
2022-08-19T01:44:56.814Z,27.17
2022-08-19T01:47:23.176Z,27.20
2022-08-19T01:49:49.565Z,27.16
2022-08-19T01:52:15.955Z,27.15
2022-08-19T01:54:42.347Z,27.15
2022-08-19T01:57:08.759Z,27.13
2022-08-19T01:59:35.406Z,27.13
2022-08-19T02:02:01.797Z,27.15
2022-08-19T02:04:28.087Z,27.09
2022-08-19T02:06:54.482Z,27.14
2022-08-19T02:09:21.089Z,27.12
2022-08-19T02:11:47.513Z,27.13
2022-08-19T02:14:13.893Z,27.11
2022-08-19T02:16:40.422Z,27.11
2022-08-19T02:19:06.957Z,27.10
2022-08-19T02:21:33.287Z,27.11
2022-08-19T02:23:59.719Z,27.13
2022-08-19T02:26:26.046Z,27.10
2022-08-19T02:28:52.434Z,27.11
2022-08-19T02:31:18.771Z,27.10
2022-08-19T02:33:45.377Z,27.10
2022-08-19T02:36:12.018Z,27.08
2022-08-19T02:38:38.350Z,27.06
2022-08-19T02:41:04.720Z,27.06
2022-08-19T02:43:32.185Z,27.03
2022-08-19T02:46:00.734Z,27.06
2022-08-19T02:48:27.130Z,27.05
2022-08-19T02:50:53.789Z,27.06
2022-08-19T02:53:20.233Z,27.04
2022-08-19T02:55:46.548Z,27.04
2022-08-19T02:58:12.990Z,27.04
2022-08-19T03:00:41.606Z,27.03
2022-08-19T03:03:08.622Z,27.03
2022-08-19T03:05:47.938Z,27.04
2022-08-19T03:08:21.531Z,27.02
2022-08-19T03:10:47.971Z,27.03
2022-08-19T03:13:14.295Z,27.01
2022-08-19T03:15:40.569Z,27.04
2022-08-19T03:18:06.910Z,27.02
2022-08-19T03:20:35.066Z,27.00
2022-08-19T03:23:01.560Z,27.01
2022-08-19T03:25:27.945Z,27.02
2022-08-19T03:27:54.293Z,27.00
2022-08-19T03:30:23.328Z,27.02
2022-08-19T03:32:53.539Z,27.02
2022-08-19T03:35:23.745Z,27.02
2022-08-19T03:37:50.214Z,27.01
2022-08-19T03:40:16.794Z,27.01
2022-08-19T03:42:59.534Z,27.01
2022-08-19T03:45:26.002Z,27.00
2022-08-19T03:47:55.063Z,27.02
2022-08-19T03:50:21.386Z,27.00
2022-08-19T03:52:47.771Z,26.99
2022-08-19T03:55:14.220Z,27.00
2022-08-19T03:57:40.622Z,26.99
2022-08-19T04:00:13.590Z,27.00
2022-08-19T04:02:40.510Z,27.02
2022-08-19T04:05:07.383Z,27.00
2022-08-19T04:07:33.938Z,27.00
2022-08-19T04:10:00.329Z,26.98
2022-08-19T04:12:27.146Z,26.99
2022-08-19T04:14:53.646Z,26.98
2022-08-19T04:17:19.962Z,26.97
2022-08-19T04:19:46.490Z,26.96
2022-08-19T04:22:12.822Z,26.96
2022-08-19T04:24:39.171Z,26.96
2022-08-19T04:27:05.934Z,26.96
2022-08-19T04:29:32.250Z,26.95
2022-08-19T04:31:58.761Z,26.97
2022-08-19T04:34:25.261Z,26.96
2022-08-19T04:36:51.657Z,26.94
2022-08-19T04:39:18.251Z,26.98
2022-08-19T04:41:44.878Z,26.95
2022-08-19T04:44:11.226Z,26.95
2022-08-19T04:46:37.582Z,26.94
2022-08-19T04:49:13.166Z,26.94
2022-08-19T04:51:40.169Z,26.94
2022-08-19T04:54:06.610Z,26.96
2022-08-19T04:56:32.965Z,26.94
2022-08-19T04:58:59.302Z,26.91
2022-08-19T05:01:25.715Z,26.93
2022-08-19T05:03:52.098Z,26.90
2022-08-19T05:06:18.479Z,26.90
2022-08-19T05:08:44.827Z,26.91
2022-08-19T05:11:11.386Z,26.91
2022-08-19T05:13:40.581Z,26.91
2022-08-19T05:16:08.342Z,26.93
2022-08-19T05:18:34.650Z,26.91
2022-08-19T05:21:00.979Z,26.91
2022-08-19T05:23:27.463Z,26.91
2022-08-19T05:25:53.979Z,26.90
2022-08-19T05:28:20.504Z,26.88
2022-08-19T05:30:47.770Z,26.86
2022-08-19T05:33:14.086Z,26.88
2022-08-19T05:35:40.426Z,26.88
2022-08-19T05:38:06.814Z,26.89
2022-08-19T05:40:33.166Z,26.86
2022-08-19T05:42:59.501Z,26.87
2022-08-19T05:45:25.841Z,26.87
2022-08-19T05:47:52.168Z,26.89
2022-08-19T05:50:18.567Z,26.86
2022-08-19T05:52:45.955Z,26.85
2022-08-19T05:55:17.155Z,26.86
2022-08-19T06:00:27.751Z,26.86
2022-08-19T06:02:54.246Z,26.86
2022-08-19T06:05:21.564Z,26.83
2022-08-19T06:07:48.125Z,26.88
2022-08-19T06:10:14.682Z,26.90
2022-08-19T06:12:41.127Z,26.86
2022-08-19T06:15:07.665Z,26.98
2022-08-19T06:17:34.131Z,26.93
2022-08-19T06:20:00.804Z,26.91
2022-08-19T06:22:27.133Z,26.83
2022-08-19T06:24:53.838Z,26.84
2022-08-19T06:27:20.327Z,26.81
2022-08-19T06:29:46.788Z,26.86
2022-08-19T06:32:13.298Z,26.82
2022-08-19T06:34:39.689Z,26.78
2022-08-19T06:37:06.073Z,26.75
2022-08-19T06:39:32.464Z,26.77
2022-08-19T06:42:00.338Z,26.74
2022-08-19T06:44:26.710Z,26.74
2022-08-19T06:46:55.009Z,26.74
2022-08-19T06:49:21.550Z,26.74
2022-08-19T06:51:47.934Z,26.77
2022-08-19T06:54:19.028Z,26.77
2022-08-19T06:56:46.312Z,26.75
2022-08-19T06:59:12.604Z,26.73
2022-08-19T07:04:22.947Z,26.76
2022-08-19T07:06:55.013Z,26.78
2022-08-19T07:09:22.015Z,26.76
2022-08-19T07:11:48.554Z,26.77
2022-08-19T07:14:19.292Z,26.76
2022-08-19T07:16:46.138Z,26.77
2022-08-19T07:19:16.093Z,26.74
2022-08-19T07:21:42.786Z,26.75
2022-08-19T07:24:09.222Z,26.76
2022-08-19T07:26:35.658Z,26.80
2022-08-19T07:29:02.034Z,26.78
2022-08-19T07:31:31.069Z,26.78
2022-08-19T07:33:57.749Z,26.79
2022-08-19T07:36:26.170Z,26.80
2022-08-19T07:38:52.562Z,26.84
2022-08-19T07:41:18.873Z,26.81
2022-08-19T07:43:46.794Z,26.78
2022-08-19T07:46:13.161Z,26.80
2022-08-19T07:48:39.542Z,26.77
2022-08-19T07:51:05.935Z,26.79
2022-08-19T07:53:35.617Z,26.79
2022-08-19T07:56:05.572Z,26.78
2022-08-19T07:58:31.863Z,26.75
2022-08-19T08:00:58.333Z,26.74
2022-08-19T08:03:24.766Z,26.83
2022-08-19T08:05:51.237Z,26.77
2022-08-19T08:08:18.064Z,26.78
2022-08-19T08:10:44.478Z,26.80
2022-08-19T08:13:19.555Z,26.80
2022-08-19T08:15:45.870Z,26.80
2022-08-19T08:18:12.307Z,26.76
2022-08-19T08:20:38.736Z,26.78
2022-08-19T08:23:05.328Z,26.75
2022-08-19T08:25:32.492Z,26.76
2022-08-19T08:28:00.705Z,26.79
2022-08-19T08:30:27.174Z,26.88
2022-08-19T08:32:57.848Z,26.80
2022-08-19T08:35:25.764Z,26.82
2022-08-19T08:37:52.638Z,26.82
2022-08-19T08:40:19.189Z,26.80
2022-08-19T08:42:45.659Z,26.94
2022-08-19T08:48:02.058Z,26.94
2022-08-19T08:50:28.588Z,26.98
2022-08-19T08:52:55.276Z,27.02
2022-08-19T08:55:21.922Z,26.96
2022-08-19T08:57:48.266Z,26.94
2022-08-19T09:00:15.390Z,26.98
2022-08-19T09:02:43.344Z,27.02
2022-08-19T09:05:10.423Z,26.96
2022-08-19T09:07:46.872Z,26.99
2022-08-19T09:10:13.678Z,27.05
2022-08-19T09:12:40.307Z,26.99
2022-08-19T09:15:09.358Z,26.97
2022-08-19T09:17:36.403Z,27.03
2022-08-19T09:20:02.930Z,27.03
2022-08-19T09:22:29.297Z,27.03
2022-08-19T09:24:55.792Z,27.05
2022-08-19T09:27:22.438Z,27.04
2022-08-19T09:30:09.080Z,27.02
2022-08-19T09:32:35.464Z,27.07
2022-08-19T09:35:01.838Z,27.08
2022-08-19T09:37:30.153Z,27.10
2022-08-19T09:39:56.516Z,27.09
2022-08-19T09:42:30.039Z,27.07
2022-08-19T09:44:57.089Z,27.05
2022-08-19T09:47:26.922Z,27.09
2022-08-19T09:52:55.520Z,27.10
2022-08-19T09:55:24.088Z,27.08
2022-08-19T09:57:50.577Z,27.07
2022-08-19T10:00:16.880Z,27.10
2022-08-19T10:02:43.337Z,27.09
2022-08-19T10:05:11.975Z,27.08
2022-08-19T10:07:38.421Z,27.09
2022-08-19T10:10:04.791Z,27.08
2022-08-19T10:12:31.137Z,27.09
2022-08-19T10:14:57.483Z,27.08
2022-08-19T10:17:26.760Z,27.10
2022-08-19T10:19:55.505Z,27.06
2022-08-19T10:22:22.384Z,27.09
2022-08-19T10:24:48.764Z,27.08
2022-08-19T10:27:15.221Z,27.07
2022-08-19T10:29:46.472Z,27.05
2022-08-19T10:32:13.061Z,27.07
2022-08-19T10:34:48.817Z,27.10
2022-08-19T10:37:15.785Z,27.11
2022-08-19T10:39:55.172Z,27.11
2022-08-19T10:42:22.158Z,27.12
2022-08-19T10:44:48.530Z,27.08
2022-08-19T10:47:17.370Z,27.09
2022-08-19T10:49:51.698Z,27.09
2022-08-19T10:52:18.945Z,27.10
2022-08-19T10:54:47.752Z,27.10
2022-08-19T10:57:14.274Z,27.08
2022-08-19T10:59:41.938Z,27.16
2022-08-19T11:02:08.302Z,27.08
2022-08-19T11:04:35.743Z,27.09
2022-08-19T11:07:02.362Z,27.08
2022-08-19T11:09:34.036Z,27.08
2022-08-19T11:12:02.975Z,27.07
2022-08-19T11:14:31.425Z,27.09
2022-08-19T11:17:00.641Z,27.10
2022-08-19T11:19:27.265Z,27.09
2022-08-19T11:24:38.181Z,27.07
2022-08-19T11:27:04.816Z,27.12
2022-08-19T11:29:31.173Z,27.08
2022-08-19T11:31:57.542Z,27.04
2022-08-19T11:34:23.914Z,27.08
2022-08-19T11:36:50.278Z,27.00
2022-08-19T11:39:16.643Z,27.00
2022-08-19T11:41:43.018Z,27.04
2022-08-19T11:44:09.504Z,27.04
2022-08-19T11:46:35.766Z,27.03
2022-08-19T11:49:02.182Z,27.05
2022-08-19T11:51:28.527Z,27.04
2022-08-19T11:53:54.892Z,27.04
2022-08-19T11:56:21.590Z,27.05
2022-08-19T11:58:48.016Z,27.07
2022-08-19T12:01:14.419Z,27.07
2022-08-19T12:03:40.810Z,27.07
2022-08-19T12:06:07.316Z,27.07
2022-08-19T12:08:33.771Z,27.09
2022-08-19T12:11:03.127Z,27.10
2022-08-19T12:16:13.765Z,27.11
2022-08-19T12:18:43.223Z,27.11
2022-08-19T12:21:09.624Z,27.10
2022-08-19T12:23:36.222Z,27.10
2022-08-19T12:26:02.655Z,27.10
2022-08-19T12:28:28.948Z,27.10
2022-08-19T12:30:55.273Z,27.10
2022-08-19T12:33:21.681Z,27.10
2022-08-19T12:35:48.310Z,27.09
2022-08-19T12:38:14.679Z,27.08
2022-08-19T12:40:41.024Z,27.07
2022-08-19T12:43:07.666Z,27.08
2022-08-19T12:45:34.241Z,27.08
2022-08-19T12:48:01.269Z,27.10
2022-08-19T12:50:47.611Z,27.09
2022-08-19T12:53:13.981Z,27.09
2022-08-19T12:55:40.382Z,27.10
2022-08-19T12:58:06.832Z,27.10
2022-08-19T13:00:33.186Z,27.11
2022-08-19T13:02:59.603Z,27.09
2022-08-19T13:05:25.951Z,27.11
2022-08-19T13:07:52.367Z,27.11
2022-08-19T13:10:18.712Z,27.10
2022-08-19T13:12:45.030Z,27.10
2022-08-19T13:15:11.721Z,27.10
2022-08-19T13:17:38.018Z,27.10
2022-08-19T13:20:04.451Z,27.09
2022-08-19T13:22:30.853Z,27.10
2022-08-19T13:24:57.170Z,27.09
2022-08-19T13:27:23.570Z,27.08
2022-08-19T13:29:49.986Z,27.08
2022-08-19T13:32:18.633Z,27.08
2022-08-19T13:34:45.207Z,27.09
2022-08-19T13:37:11.601Z,27.09
2022-08-19T13:39:37.981Z,27.08
2022-08-19T13:42:04.378Z,27.09
2022-08-19T13:44:31.083Z,27.09
2022-08-19T13:46:57.741Z,27.07
2022-08-19T13:49:24.166Z,27.07
2022-08-19T13:51:50.546Z,27.09
2022-08-19T13:54:17.011Z,27.08
2022-08-19T13:56:43.671Z,27.09
2022-08-19T13:59:10.322Z,27.07
2022-08-19T14:01:36.634Z,27.08
2022-08-19T14:04:03.055Z,27.10
2022-08-19T14:06:29.409Z,27.08
2022-08-19T14:08:55.822Z,27.09
2022-08-19T14:11:22.214Z,27.10
2022-08-19T14:13:48.520Z,27.11
2022-08-19T14:16:14.872Z,27.10
2022-08-19T14:18:41.159Z,27.09
2022-08-19T14:21:07.587Z,27.10
2022-08-19T14:23:33.945Z,27.11
2022-08-19T14:26:03.372Z,27.11
2022-08-19T14:28:30.010Z,27.12
2022-08-19T14:30:56.680Z,27.11
2022-08-19T14:33:23.136Z,27.11
2022-08-19T14:35:59.685Z,27.11
2022-08-19T14:38:31.412Z,27.11
2022-08-19T14:40:58.191Z,27.11
2022-08-19T14:43:24.602Z,27.11
2022-08-19T14:45:51.038Z,27.11
2022-08-19T14:48:19.463Z,27.11
2022-08-19T14:50:46.678Z,27.11
2022-08-19T14:53:13.035Z,27.10
2022-08-19T14:55:39.502Z,27.09
2022-08-19T14:58:08.885Z,27.10
2022-08-19T15:00:36.835Z,27.09
2022-08-19T15:03:03.296Z,27.08
2022-08-19T15:05:29.616Z,27.07
2022-08-19T15:07:56.084Z,27.08
2022-08-19T15:10:22.575Z,27.07
2022-08-19T15:12:51.703Z,27.08
2022-08-19T15:15:21.412Z,27.08
2022-08-19T15:17:47.739Z,27.08
2022-08-19T15:20:14.077Z,27.06
2022-08-19T15:22:40.489Z,27.06
2022-08-19T15:25:06.827Z,27.05
2022-08-19T15:27:33.487Z,27.07
2022-08-19T15:30:01.580Z,27.07
2022-08-19T15:32:28.172Z,27.05
2022-08-19T15:34:59.503Z,27.05
2022-08-19T15:37:25.961Z,27.04
2022-08-19T15:39:52.420Z,27.05
2022-08-19T15:42:28.142Z,27.03
2022-08-19T15:44:56.627Z,27.05
2022-08-19T15:47:26.999Z,27.05
2022-08-19T15:50:01.149Z,27.04
2022-08-19T15:52:27.922Z,27.04
2022-08-19T15:54:54.286Z,27.05
2022-08-19T15:57:20.736Z,27.03
2022-08-19T16:02:37.435Z,27.04
2022-08-19T16:05:03.802Z,27.03
2022-08-19T16:07:30.182Z,27.02
2022-08-19T16:09:56.668Z,27.03
2022-08-19T16:12:23.090Z,27.03
2022-08-19T16:14:49.741Z,27.01
2022-08-19T16:17:16.180Z,27.01
2022-08-19T16:19:42.510Z,27.01
2022-08-19T16:22:08.955Z,27.01
2022-08-19T16:24:35.306Z,27.00
2022-08-19T16:27:01.993Z,27.00
2022-08-19T16:29:34.164Z,27.00
2022-08-19T16:32:05.666Z,27.00
2022-08-19T16:34:32.039Z,27.00
2022-08-19T16:37:00.019Z,27.00
2022-08-19T16:39:26.399Z,27.00
2022-08-19T16:41:52.870Z,27.00
2022-08-19T16:44:19.409Z,27.00
2022-08-19T16:46:45.930Z,26.98
2022-08-19T16:49:20.970Z,26.99
2022-08-19T16:52:03.674Z,26.99
2022-08-19T16:54:32.578Z,26.98
2022-08-19T16:56:59.406Z,26.99
2022-08-19T16:59:25.810Z,26.98
2022-08-19T17:01:52.233Z,26.99
2022-08-19T17:04:18.637Z,26.99
2022-08-19T17:06:45.058Z,26.99
2022-08-19T17:09:11.569Z,26.99
2022-08-19T17:11:37.853Z,26.98
2022-08-19T17:14:04.299Z,26.99
2022-08-19T17:16:30.653Z,26.97
2022-08-19T17:18:56.966Z,26.98
2022-08-19T17:21:23.634Z,26.97
2022-08-19T17:23:50.021Z,27.01
2022-08-19T17:26:18.170Z,27.02
2022-08-19T17:28:44.943Z,27.01
2022-08-19T17:31:11.395Z,27.00
2022-08-19T17:33:41.142Z,26.99
2022-08-19T17:36:07.790Z,26.98
2022-08-19T17:38:34.298Z,26.97
2022-08-19T17:41:00.833Z,26.98
2022-08-19T17:43:32.764Z,26.99
2022-08-19T17:46:00.514Z,27.01
2022-08-19T17:48:26.891Z,27.02
2022-08-19T17:50:53.230Z,26.97
2022-08-19T17:53:21.058Z,26.94
2022-08-19T17:55:48.041Z,26.93
2022-08-19T17:58:14.597Z,26.92
2022-08-19T18:00:53.871Z,26.91
2022-08-19T18:03:21.409Z,26.92
2022-08-19T18:05:47.940Z,26.90
2022-08-19T18:08:14.381Z,26.86
2022-08-19T18:10:40.702Z,26.88
2022-08-19T18:15:57.773Z,26.86
2022-08-19T18:18:24.206Z,26.86
2022-08-19T18:20:50.604Z,26.86
2022-08-19T18:23:43.804Z,26.85
2022-08-19T18:26:03.665Z,26.85
2022-08-19T18:28:30.100Z,26.82
2022-08-19T18:30:56.723Z,26.80
2022-08-19T18:33:23.231Z,26.82
2022-08-19T18:35:49.565Z,26.81
2022-08-19T18:38:16.082Z,26.81
2022-08-19T18:40:42.449Z,26.81
2022-08-19T18:43:10.640Z,26.82
2022-08-19T18:45:37.022Z,26.82
2022-08-19T18:48:04.945Z,26.81
2022-08-19T18:50:31.285Z,26.79
2022-08-19T18:52:57.670Z,26.80
2022-08-19T18:55:24.743Z,26.82
2022-08-19T18:57:51.126Z,26.81
2022-08-19T19:00:18.954Z,26.81
2022-08-19T19:02:45.424Z,26.79
2022-08-19T19:05:11.901Z,26.81
2022-08-19T19:07:38.914Z,26.80
2022-08-19T19:10:05.295Z,26.79
2022-08-19T19:12:31.671Z,26.79
2022-08-19T19:14:57.949Z,26.77
2022-08-19T19:17:24.337Z,26.77
2022-08-19T19:19:50.923Z,26.79
2022-08-19T19:22:17.295Z,26.78
2022-08-19T19:24:43.674Z,26.79
2022-08-19T19:27:10.130Z,26.77
2022-08-19T19:29:36.471Z,26.80
2022-08-19T19:32:02.796Z,26.78
2022-08-19T19:34:30.221Z,26.78
2022-08-19T19:36:57.062Z,26.78
2022-08-19T19:39:42.946Z,26.76
2022-08-19T19:44:53.834Z,26.80
2022-08-19T19:47:20.597Z,26.80
2022-08-19T19:50:10.577Z,26.81
2022-08-19T19:52:33.372Z,26.77
2022-08-19T19:54:59.758Z,26.74
2022-08-19T19:57:26.221Z,26.76
2022-08-19T19:59:52.855Z,26.78
2022-08-19T20:02:19.342Z,26.78
2022-08-19T20:04:45.699Z,26.73
2022-08-19T20:07:12.229Z,26.77
2022-08-19T20:09:58.349Z,26.78
2022-08-19T20:12:24.933Z,26.76
2022-08-19T20:14:51.477Z,26.76
2022-08-19T20:17:18.125Z,26.74
2022-08-19T20:19:44.515Z,26.74
2022-08-19T20:22:10.922Z,26.72
2022-08-19T20:24:37.415Z,26.75
2022-08-19T20:27:03.756Z,26.70
2022-08-19T20:29:39.628Z,26.72
2022-08-19T20:32:08.221Z,26.76
2022-08-19T20:34:34.600Z,26.73
2022-08-19T20:37:01.043Z,26.78
2022-08-19T20:39:27.671Z,26.74
2022-08-19T20:41:54.055Z,26.75
2022-08-19T20:44:20.454Z,26.71
2022-08-19T20:46:54.527Z,26.72
2022-08-19T20:49:22.623Z,26.71
2022-08-19T20:54:37.483Z,26.72
2022-08-19T20:57:03.894Z,26.76
2022-08-19T20:59:30.321Z,26.72
2022-08-19T21:01:56.627Z,26.72
2022-08-19T21:04:22.958Z,26.74
2022-08-19T21:06:49.625Z,26.69
2022-08-19T21:09:16.653Z,26.70
2022-08-19T21:11:44.036Z,26.69
2022-08-19T21:14:10.431Z,26.71
2022-08-19T21:16:36.862Z,26.68
2022-08-19T21:19:03.187Z,26.71
2022-08-19T21:21:29.530Z,26.73
2022-08-19T21:23:55.850Z,26.69
2022-08-19T21:26:22.233Z,26.67
2022-08-19T21:28:48.666Z,26.69
2022-08-19T21:31:15.102Z,26.71
2022-08-19T21:33:41.534Z,26.67
2022-08-19T21:36:07.871Z,26.67
2022-08-19T21:38:34.234Z,26.64
2022-08-19T21:41:01.333Z,26.64
2022-08-19T21:43:32.185Z,26.66
2022-08-19T21:45:58.680Z,26.67
2022-08-19T21:48:25.050Z,26.64
2022-08-19T21:50:51.579Z,26.65
2022-08-19T21:53:17.923Z,26.67
2022-08-19T21:55:44.341Z,26.65
2022-08-19T21:58:10.729Z,26.67
2022-08-19T22:00:37.487Z,26.67
2022-08-19T22:03:05.383Z,26.62
2022-08-19T22:05:31.846Z,26.65
2022-08-19T22:07:58.495Z,26.65
2022-08-19T22:10:29.194Z,26.63
2022-08-19T22:12:55.671Z,26.63
2022-08-19T22:15:22.903Z,26.62
2022-08-19T22:17:49.384Z,26.61
2022-08-19T22:20:15.875Z,26.65
2022-08-19T22:22:42.259Z,26.63
2022-08-19T22:25:08.545Z,26.64
2022-08-19T22:27:34.912Z,26.63
2022-08-19T22:30:01.601Z,26.62
2022-08-19T22:32:30.394Z,26.60
2022-08-19T22:34:57.817Z,26.61
2022-08-19T22:37:24.178Z,26.61
2022-08-19T22:39:50.661Z,26.62
2022-08-19T22:42:17.381Z,26.61
2022-08-19T22:44:44.001Z,26.62
2022-08-19T22:47:10.333Z,26.61
2022-08-19T22:49:36.865Z,26.61
2022-08-19T22:52:03.174Z,26.60
2022-08-19T22:54:29.515Z,26.63
2022-08-19T22:56:55.946Z,26.64
2022-08-19T22:59:22.390Z,26.61
2022-08-19T23:01:48.756Z,26.61
2022-08-19T23:04:15.086Z,26.61
2022-08-19T23:06:42.200Z,26.60
2022-08-19T23:09:08.761Z,26.62
2022-08-19T23:11:35.193Z,26.62
2022-08-19T23:14:01.845Z,26.60
2022-08-19T23:16:28.197Z,26.64
2022-08-19T23:18:56.122Z,26.62
2022-08-19T23:21:22.565Z,26.59
2022-08-19T23:23:48.983Z,26.59
2022-08-19T23:26:15.372Z,26.60
2022-08-19T23:28:41.713Z,26.61
2022-08-19T23:31:08.027Z,26.60
2022-08-19T23:33:51.634Z,26.60
2022-08-19T23:36:18.297Z,26.57
2022-08-19T23:38:44.682Z,26.58
2022-08-19T23:41:11.055Z,26.58
2022-08-19T23:43:37.351Z,26.57
2022-08-19T23:46:10.524Z,26.56
2022-08-19T23:48:37.118Z,26.56
2022-08-19T23:51:03.626Z,26.58
2022-08-19T23:53:30.026Z,26.56
2022-08-19T23:55:56.566Z,26.57
2022-08-19T23:58:22.982Z,26.56
